Weather History for Wrangell, AK

Change the Weather History Date:

Tuesday, May 14, 2013

  Actual Average Record
Temperature  
Mean Temperature 46 °F -  
Max Temperature 48 °F 55 °F 74 °F (1993)
Min Temperature 44 °F 40 °F 33 °F (1979)
Degree Days  
Heating Degree Days 19    
Moisture  
Dew Point 41 °F    
Average Humidity 80    
Maximum Humidity 87    
Minimum Humidity 71    
Precipitation  
Precipitation 0.30 in - - ()
Sea Level Pressure  
Sea Level Pressure 29.91 in    
Wind  
Wind Speed 7 mph (SE)    
Max Wind Speed 16 mph    
Max Gust Speed 21 mph    
Visibility 10 miles    
Events      
Averages and records for this station are not official NWS values.
T = Trace of Precipitation, MM = Missing Value Source: NWS Daily Summary

Daily Weather History Graph

Daily Weather History Graph

Search for Another Location

Airport:

Trip Planner

Search our weather history database for the weather conditions in past years. The results will help you decide how hot, cold, wet, or windy it might be!

Date:

Astronomy

May. 14, 2013 Rise Set
Actual Time 4:35 AM AKDT 8:57 PM AKDT
Civil Twilight 3:44 AM AKDT 9:49 PM AKDT
Nautical Twilight 2:24 AM AKDT 11:11 PM AKDT
Astronomical Twilight Sun does not rise Sun does not rise
Moon 8:24 AM AKDT (5/14) 12:08 AM AKDT (5/14)
Length of Visible Light 18h 04m
Length of Day
16h 22m
Waxing Crescent, 20% of the Moon is Illuminated
May 14
Waxing Crescent
May 17
First Quarter
May 24
Full
May 31
Last Quarter
Jun 8
New

Hourly Weather History & Observations

Time (AKDT) Temp. Windchill Dew Point Humidity Pressure Visibility Wind Dir Wind Speed Gust Speed Precip Events Conditions
12:16 AM 46.4 °F - 42.8 °F 87% 29.80 in 10.0 mi Calm Calm - N/A   Overcast
12:36 AM 46.4 °F 44.3 °F 42.8 °F 87% 29.81 in 10.0 mi SW 4.6 mph - N/A   Overcast
12:56 AM 48.2 °F - 41.0 °F 76% 29.82 in 10.0 mi Calm Calm - N/A   Mostly Cloudy
1:16 AM 46.4 °F 44.3 °F 42.8 °F 87% 29.83 in 10.0 mi SE 4.6 mph - N/A   Overcast
1:36 AM 48.2 °F - 42.8 °F 82% 29.83 in 10.0 mi SSE 4.6 mph - N/A   Overcast
1:56 AM 46.4 °F - 41.0 °F 81% 29.84 in 10.0 mi Calm Calm - N/A   Overcast
2:16 AM 46.4 °F 44.3 °F 41.0 °F 81% 29.84 in 9.0 mi West 4.6 mph - N/A   Overcast
2:36 AM 46.4 °F 43.5 °F 41.0 °F 81% 29.85 in 10.0 mi SW 5.8 mph - N/A   Overcast
2:56 AM 46.4 °F - 42.8 °F 87% 29.85 in 10.0 mi Calm Calm - N/A   Overcast
3:16 AM 46.4 °F 44.3 °F 41.0 °F 81% 29.86 in 10.0 mi East 4.6 mph - N/A   Overcast
3:36 AM 46.4 °F 43.5 °F 39.2 °F 76% 29.87 in 10.0 mi South 5.8 mph - N/A   Overcast
3:56 AM 46.4 °F 45.2 °F 39.2 °F 76% 29.87 in 10.0 mi SE 3.5 mph - N/A   Overcast
4:16 AM 46.4 °F 44.3 °F 39.2 °F 76% 29.87 in 10.0 mi SE 4.6 mph - N/A   Overcast
4:36 AM 46.4 °F 42.9 °F 39.2 °F 76% 29.87 in 10.0 mi SSE 6.9 mph - N/A   Mostly Cloudy
4:56 AM 46.4 °F 41.1 °F 39.2 °F 76% 29.87 in 10.0 mi ESE 11.5 mph 16.1 mph N/A   Mostly Cloudy
5:16 AM 46.4 °F 41.1 °F 39.2 °F 76% 29.87 in 10.0 mi SE 11.5 mph - N/A   Overcast
5:36 AM 46.4 °F 41.1 °F 39.2 °F 76% 29.87 in 10.0 mi SE 11.5 mph - N/A   Overcast
5:56 AM 46.4 °F 40.4 °F 39.2 °F 76% 29.87 in 10.0 mi ESE 13.8 mph 19.6 mph 0.01 in   Overcast
6:16 AM 46.4 °F 40.1 °F 39.2 °F 76% 29.87 in 10.0 mi SE 15.0 mph 19.6 mph N/A   Overcast
6:36 AM 46.4 °F 39.8 °F 39.2 °F 76% 29.88 in 10.0 mi SE 16.1 mph 20.7 mph N/A   Overcast
6:56 AM 46.4 °F 40.7 °F 39.2 °F 76% 29.89 in 10.0 mi ESE 12.7 mph 20.7 mph N/A   Overcast
7:16 AM 46.4 °F 41.1 °F 39.2 °F 76% 29.89 in 10.0 mi SE 11.5 mph 17.3 mph 0.01 in   Overcast
7:36 AM 46.4 °F 40.4 °F 39.2 °F 76% 29.89 in 10.0 mi ESE 13.8 mph - 0.01 in   Overcast
7:56 AM 46.4 °F 40.1 °F 39.2 °F 76% 29.89 in 10.0 mi ESE 15.0 mph 18.4 mph 0.01 in   Overcast
8:16 AM 46.4 °F 40.7 °F 39.2 °F 76% 29.90 in 10.0 mi ESE 12.7 mph 18.4 mph N/A   Overcast
8:36 AM 46.4 °F 40.1 °F 39.2 °F 76% 29.90 in 10.0 mi ESE 15.0 mph 19.6 mph N/A   Overcast
8:56 AM 46.4 °F 40.4 °F 39.2 °F 76% 29.91 in 10.0 mi ESE 13.8 mph - 0.01 in   Overcast
9:16 AM 46.4 °F 40.4 °F 39.2 °F 76% 29.91 in 10.0 mi ESE 13.8 mph 19.6 mph N/A   Overcast
9:36 AM 46.4 °F 41.5 °F 41.0 °F 81% 29.91 in 10.0 mi ESE 10.4 mph - N/A   Overcast
9:56 AM 48.2 °F - 41.0 °F 76% 29.91 in 10.0 mi ESE 11.5 mph - N/A   Overcast
10:16 AM 48.2 °F - 39.2 °F 71% 29.92 in 10.0 mi ESE 12.7 mph - N/A   Overcast
10:36 AM 48.2 °F - 39.2 °F 71% 29.92 in 10.0 mi ESE 11.5 mph 20.7 mph N/A   Overcast
10:56 AM 48.2 °F - 39.2 °F 71% 29.92 in 10.0 mi ESE 12.7 mph 16.1 mph N/A   Overcast
11:16 AM 48.2 °F - 41.0 °F 76% 29.93 in 10.0 mi ESE 11.5 mph 19.6 mph N/A   Overcast
11:36 AM 48.2 °F - 41.0 °F 76% 29.93 in 10.0 mi ESE 10.4 mph - N/A   Overcast
11:56 AM 48.2 °F - 39.2 °F 71% 29.94 in 10.0 mi ESE 9.2 mph - N/A   Overcast
12:16 PM 48.2 °F - 41.0 °F 76% 29.94 in 10.0 mi ESE 10.4 mph 18.4 mph N/A   Overcast
12:36 PM 48.2 °F - 41.0 °F 76% 29.94 in 10.0 mi ESE 12.7 mph 16.1 mph N/A   Overcast
12:56 PM 48.2 °F - 41.0 °F 76% 29.94 in 10.0 mi ESE 11.5 mph - 0.01 in   Overcast
1:16 PM 48.2 °F - 41.0 °F 76% 29.94 in 10.0 mi East 9.2 mph - 0.01 in   Overcast
1:36 PM 48.2 °F - 41.0 °F 76% 29.95 in 10.0 mi ESE 11.5 mph - 0.01 in   Overcast
1:56 PM 48.2 °F - 41.0 °F 76% 29.95 in 10.0 mi East 11.5 mph 18.4 mph 0.03 in   Overcast
2:16 PM 48.2 °F - 42.8 °F 82% 29.95 in 10.0 mi East 12.7 mph - 0.01 in   Overcast
2:36 PM 46.4 °F 41.5 °F 42.8 °F 87% 29.95 in 10.0 mi East 10.4 mph - 0.04 in   Overcast
2:56 PM 46.4 °F 41.9 °F 42.8 °F 87% 29.95 in 10.0 mi ESE 9.2 mph - 0.06 in   Overcast
3:16 PM 48.2 °F - 41.0 °F 76% 29.95 in 10.0 mi ESE 10.4 mph 16.1 mph 0.01 in   Overcast
3:36 PM 48.2 °F - 42.8 °F 82% 29.95 in 10.0 mi ESE 10.4 mph - 0.01 in   Overcast
3:56 PM 48.2 °F - 42.8 °F 82% 29.95 in 10.0 mi East 9.2 mph - 0.01 in   Overcast
4:16 PM 48.2 °F - 41.0 °F 76% 29.95 in 10.0 mi South 5.8 mph - 0.01 in   Overcast
4:36 PM 48.2 °F - 44.6 °F 87% 29.95 in 10.0 mi Calm Calm - 0.02 in   Overcast
4:56 PM 48.2 °F - 42.8 °F 82% 29.95 in 10.0 mi Calm Calm - 0.03 in   Overcast
5:16 PM 48.2 °F - 42.8 °F 82% 29.95 in 10.0 mi SE 9.2 mph - N/A   Overcast
5:36 PM 48.2 °F - 42.8 °F 82% 29.95 in 10.0 mi SE 8.1 mph - 0.02 in   Overcast
5:56 PM 48.2 °F - 42.8 °F 82% 29.95 in 10.0 mi SSW 3.5 mph - 0.04 in   Overcast
6:16 PM 48.2 °F - 42.8 °F 82% 29.95 in 10.0 mi SW 4.6 mph - 0.02 in   Overcast
6:36 PM 48.2 °F - 42.8 °F 82% 29.95 in 10.0 mi Calm Calm - 0.03 in   Overcast
6:56 PM 48.2 °F - 42.8 °F 82% 29.95 in 10.0 mi Calm Calm - 0.05 in   Overcast
7:16 PM 48.2 °F - 41.0 °F 76% 29.95 in 10.0 mi West 5.8 mph - N/A   Overcast
7:36 PM 46.4 °F - 42.8 °F 87% 29.96 in 10.0 mi Calm Calm - 0.01 in   Overcast
7:56 PM 46.4 °F - 42.8 °F 87% 29.96 in 10.0 mi Calm Calm - 0.02 in   Overcast
8:16 PM 46.4 °F 42.4 °F 42.8 °F 87% 29.95 in 10.0 mi East 8.1 mph - 0.01 in   Overcast
8:36 PM 46.4 °F 41.9 °F 42.8 °F 87% 29.95 in 10.0 mi East 9.2 mph - 0.02 in   Overcast
8:56 PM 46.4 °F 42.4 °F 42.8 °F 87% 29.95 in 10.0 mi East 8.1 mph - 0.02 in   Overcast
9:16 PM 46.4 °F 42.4 °F 42.8 °F 87% 29.95 in 10.0 mi ESE 8.1 mph - N/A   Overcast
9:36 PM 46.4 °F 42.4 °F 42.8 °F 87% 29.95 in 10.0 mi East 8.1 mph - N/A   Overcast
9:56 PM 46.4 °F 42.4 °F 42.8 °F 87% 29.95 in 10.0 mi East 8.1 mph - N/A   Overcast
10:16 PM 46.4 °F 41.9 °F 42.8 °F 87% 29.94 in 10.0 mi ESE 9.2 mph - N/A   Overcast
10:36 PM 46.4 °F 42.9 °F 41.0 °F 81% 29.94 in 10.0 mi ESE 6.9 mph - N/A   Overcast
10:56 PM 46.4 °F 42.9 °F 41.0 °F 81% 29.94 in 10.0 mi SSE 6.9 mph - N/A   Overcast
11:16 PM 44.6 °F 40.7 °F 41.0 °F 87% 29.94 in 10.0 mi South 6.9 mph - N/A   Overcast
11:36 PM 44.6 °F 41.4 °F 41.0 °F 87% 29.94 in 10.0 mi South 5.8 mph - N/A   Overcast
11:56 PM 44.6 °F 41.4 °F 41.0 °F 87% 29.94 in 10.0 mi South 5.8 mph - N/A   Overcast